< Typhoon 195119 1951 Season Typhoon 195121 >
Typhoon 195120 (AMY)
General InformationTrack Information on Google Maps || Disaster Info.ResourceGoogle EarthGE AnimationAtom FeedGeoJSON
Detalied Best Track (Time Zone = UTC)
Year Month Day Hour Lat. Long. Pressure (hPa) Wind (kt) Class Image Chart
1951 12 3 00 9.0 150.4 1000 0 9 -- Chart
1951 12 3 06 9.2 149.3 999 0 9 -- Chart
1951 12 3 12 9.1 148.3 999 0 9 -- Chart
1951 12 3 18 9.0 147.3 999 0 9 -- Chart
1951 12 4 00 9.0 146.4 998 0 9 -- Chart
1951 12 4 06 9.3 145.6 998 0 9 -- Chart
1951 12 4 12 9.5 144.0 998 0 9 -- Chart
1951 12 4 18 9.7 142.5 998 0 9 -- Chart
1951 12 5 00 10.0 141.0 998 0 9 -- Chart
1951 12 5 06 11.3 139.0 995 0 9 -- Chart
1951 12 5 12 11.7 137.5 995 0 9 -- Chart
1951 12 5 18 11.8 136.0 980 0 9 -- Chart
1951 12 6 00 12.0 134.5 970 0 9 -- Chart
1951 12 6 06 11.9 133.5 950 0 9 -- Chart
1951 12 6 12 11.9 132.9 950 0 9 -- Chart
1951 12 6 18 11.9 132.3 950 0 9 -- Chart
1951 12 7 00 11.9 131.7 950 0 9 -- Chart
1951 12 7 06 12.0 131.2 950 0 9 -- Chart
1951 12 7 12 12.0 130.6 950 0 9 -- Chart
1951 12 7 18 12.0 130.0 950 0 9 -- Chart
1951 12 8 00 12.0 129.3 950 0 9 -- Chart
1951 12 8 06 12.0 128.6 950 0 9 -- Chart
1951 12 8 12 11.7 127.9 950 0 9 -- Chart
1951 12 8 18 11.4 127.3 950 0 9 -- Chart
1951 12 9 00 11.1 126.8 950 0 9 -- Chart
1951 12 9 06 11.0 125.6 950 0 9 -- Chart
1951 12 9 12 10.8 124.7 950 0 9 -- Chart
1951 12 9 18 10.7 123.7 960 0 9 -- Chart
1951 12 10 00 10.6 122.8 960 0 9 -- Chart
1951 12 10 06 10.5 121.7 960 0 9 -- Chart
1951 12 10 12 10.5 120.9 960 0 9 -- Chart
1951 12 10 18 10.6 120.1 960 0 9 -- Chart
1951 12 11 00 10.7 119.5 960 0 9 -- Chart
1951 12 11 06 10.8 119.0 970 0 9 -- Chart
1951 12 11 12 11.0 118.6 968 0 9 -- Chart
1951 12 11 18 11.3 118.3 968 0 9 -- Chart
1951 12 12 00 11.6 118.2 968 0 9 -- Chart
1951 12 12 06 11.7 118.3 968 0 9 -- Chart
1951 12 12 12 11.7 118.5 970 0 9 -- Chart
1951 12 12 18 12.0 118.6 975 0 9 -- Chart
1951 12 13 00 12.3 118.6 980 0 9 -- Chart
1951 12 13 06 12.4 118.5 985 0 9 -- Chart
1951 12 13 12 12.7 118.3 985 0 9 -- Chart
1951 12 13 18 12.5 118.2 990 0 9 -- Chart
1951 12 14 00 12.2 118.2 990 0 9 -- Chart
1951 12 14 06 12.0 118.3 990 0 9 -- Chart
1951 12 14 12 11.7 118.3 990 0 9 -- Chart
1951 12 14 18 11.6 118.2 990 0 9 -- Chart
1951 12 15 00 11.5 118.1 990 0 9 -- Chart
1951 12 15 06 11.3 117.6 990 0 9 -- Chart
1951 12 15 12 11.2 117.2 995 0 9 -- Chart
1951 12 15 18 11.2 116.8 995 0 9 -- Chart
1951 12 16 00 11.1 116.5 995 0 9 -- Chart
1951 12 16 06 10.7 115.7 995 0 9 -- Chart
1951 12 16 12 10.6 114.8 995 0 9 -- Chart
1951 12 16 18 10.6 114.0 995 0 9 -- Chart
1951 12 17 00 10.7 113.3 995 0 9 -- Chart
1951 12 17 06 11.0 112.5 1000 0 9 -- Chart
1951 12 17 12 11.0 111.8 1000 0 2 -- Chart
1951 12 17 18 11.0 111.0 1000 0 2 -- Chart
Japan Meteorological Agency Best Track Data | Correction Date : 1990-10-17
< Typhoon 195119 1951 Season Typhoon 195121 >

Help